createdAt,value
2022-09-25T00:01:10.259Z,9.10
2022-09-25T00:03:37.272Z,9.10
2022-09-25T00:06:06.727Z,9.00
2022-09-25T00:08:34.485Z,9.00
2022-09-25T00:11:06.696Z,9.10
2022-09-25T00:13:34.157Z,9.10
2022-09-25T00:16:03.113Z,9.00
2022-09-25T00:18:49.129Z,9.10
2022-09-25T00:21:17.279Z,9.10
2022-09-25T00:23:45.340Z,9.10
2022-09-25T00:26:14.152Z,9.00
2022-09-25T00:28:42.510Z,9.10
2022-09-25T00:31:11.650Z,9.20
2022-09-25T00:33:38.546Z,9.10
2022-09-25T00:36:08.210Z,9.10
2022-09-25T00:38:37.057Z,9.10
2022-09-25T00:41:06.335Z,9.10
2022-09-25T00:43:40.767Z,9.10
2022-09-25T00:46:09.424Z,9.20
2022-09-25T00:48:37.389Z,9.20
2022-09-25T00:51:06.202Z,9.10
2022-09-25T00:53:40.964Z,9.10
2022-09-25T00:56:13.333Z,9.10
2022-09-25T00:58:41.177Z,9.10
2022-09-25T01:01:09.225Z,9.10
2022-09-25T01:03:37.193Z,9.20
2022-09-25T01:06:04.226Z,9.20
2022-09-25T01:08:32.009Z,9.10
2022-09-25T01:10:58.983Z,9.20
2022-09-25T01:13:26.830Z,9.10
2022-09-25T01:16:20.620Z,9.20
2022-09-25T01:19:20.566Z,9.20
2022-09-25T01:21:51.931Z,9.20
2022-09-25T01:24:37.619Z,9.30
2022-09-25T01:27:10.844Z,9.20
2022-09-25T01:29:44.366Z,9.30
2022-09-25T01:32:26.204Z,9.30
2022-09-25T01:35:04.666Z,9.30
2022-09-25T01:38:01.586Z,9.30
2022-09-25T01:41:12.544Z,9.30
2022-09-25T01:43:53.261Z,9.30
2022-09-25T01:46:24.256Z,9.20
2022-09-25T01:48:57.689Z,9.30
2022-09-25T01:51:36.192Z,9.30
2022-09-25T01:54:09.010Z,9.30
2022-09-25T01:56:44.260Z,9.30
2022-09-25T01:59:22.730Z,9.30
2022-09-25T02:01:51.385Z,9.30
2022-09-25T02:04:28.161Z,9.30
2022-09-25T02:06:58.917Z,9.30
2022-09-25T02:09:37.681Z,9.30
2022-09-25T02:12:29.144Z,9.30
2022-09-25T02:15:00.828Z,9.30
2022-09-25T02:17:56.459Z,9.30
2022-09-25T02:20:34.617Z,9.30
2022-09-25T02:23:53.865Z,9.30
2022-09-25T02:26:32.203Z,9.30
2022-09-25T02:28:59.808Z,9.30
2022-09-25T02:31:51.349Z,9.30
2022-09-25T02:34:18.534Z,9.30
2022-09-25T02:36:45.559Z,9.30
2022-09-25T02:39:16.125Z,9.30
2022-09-25T02:42:03.343Z,9.30
2022-09-25T02:44:45.241Z,9.30
2022-09-25T02:47:33.144Z,9.30
2022-09-25T02:50:09.337Z,9.30
2022-09-25T02:52:57.453Z,9.30
2022-09-25T02:55:45.234Z,9.30
2022-09-25T02:58:27.947Z,9.30
2022-09-25T03:00:57.482Z,9.30
2022-09-25T03:03:26.627Z,9.30
2022-09-25T03:05:56.811Z,9.30
2022-09-25T03:08:37.988Z,9.30
2022-09-25T03:11:08.681Z,9.30
2022-09-25T03:13:35.584Z,9.30
2022-09-25T03:16:09.169Z,9.30
2022-09-25T03:18:36.028Z,9.30
2022-09-25T03:21:04.291Z,9.30
2022-09-25T03:23:32.590Z,9.30
2022-09-25T03:25:59.509Z,9.30
2022-09-25T03:28:26.526Z,9.30
2022-09-25T03:31:02.178Z,9.30
2022-09-25T03:33:31.367Z,9.30
2022-09-25T03:36:02.143Z,9.30
2022-09-25T03:38:29.035Z,9.30
2022-09-25T03:40:55.941Z,9.30
2022-09-25T03:43:22.927Z,9.30
2022-09-25T03:45:49.815Z,9.30
2022-09-25T03:48:17.893Z,9.30
2022-09-25T03:50:46.239Z,9.20
2022-09-25T03:53:13.163Z,9.20
2022-09-25T03:55:40.010Z,9.20
2022-09-25T03:58:06.934Z,9.20
2022-09-25T04:00:33.851Z,9.20
2022-09-25T04:03:00.665Z,9.30
2022-09-25T04:05:27.433Z,9.30
2022-09-25T04:07:54.317Z,9.30
2022-09-25T04:10:21.195Z,9.30
2022-09-25T04:12:48.037Z,9.30
2022-09-25T04:15:15.200Z,9.30
2022-09-25T04:17:42.102Z,9.30
2022-09-25T04:20:09.963Z,9.30
2022-09-25T04:22:36.877Z,9.30
2022-09-25T04:25:03.898Z,9.30
2022-09-25T04:27:30.763Z,9.30
2022-09-25T04:29:57.644Z,9.30
2022-09-25T04:32:43.138Z,9.30
2022-09-25T04:35:09.970Z,9.30
2022-09-25T04:37:36.848Z,9.30
2022-09-25T04:40:04.191Z,9.20
2022-09-25T04:42:31.029Z,9.30
2022-09-25T04:44:58.445Z,9.30
2022-09-25T04:47:27.433Z,9.30
2022-09-25T04:49:54.265Z,9.30
2022-09-25T04:52:21.193Z,9.30
2022-09-25T04:54:48.347Z,9.30
2022-09-25T04:57:45.738Z,9.40
2022-09-25T05:00:08.180Z,9.40
2022-09-25T05:02:35.124Z,9.40
2022-09-25T05:05:02.235Z,9.40
2022-09-25T05:07:29.223Z,9.40
2022-09-25T05:09:56.117Z,9.60
2022-09-25T05:12:22.904Z,9.50
2022-09-25T05:14:50.052Z,9.60
2022-09-25T05:17:16.936Z,9.60
2022-09-25T05:19:43.778Z,9.60
2022-09-25T05:22:10.601Z,9.60
2022-09-25T05:24:38.657Z,9.70
2022-09-25T05:27:05.626Z,9.70
2022-09-25T05:29:32.503Z,9.80
2022-09-25T05:31:59.637Z,9.80
2022-09-25T05:34:26.905Z,9.80
2022-09-25T05:36:53.733Z,9.90
2022-09-25T05:39:20.552Z,10.00
2022-09-25T05:41:47.351Z,10.00
2022-09-25T05:44:15.012Z,10.00
2022-09-25T05:46:42.383Z,10.00
2022-09-25T05:49:09.504Z,10.00
2022-09-25T05:51:36.465Z,10.10
2022-09-25T05:54:03.477Z,10.10
2022-09-25T05:56:30.441Z,10.10
2022-09-25T05:58:58.617Z,10.20
2022-09-25T06:01:26.247Z,10.20
2022-09-25T06:03:53.246Z,10.30
2022-09-25T06:06:25.151Z,10.30
2022-09-25T06:08:54.683Z,10.40
2022-09-25T06:11:22.456Z,10.50
2022-09-25T06:13:54.276Z,10.50
2022-09-25T06:16:21.667Z,10.60
2022-09-25T06:18:48.824Z,10.60
2022-09-25T06:21:15.656Z,10.70
2022-09-25T06:23:45.015Z,10.70
2022-09-25T06:26:12.707Z,10.80
2022-09-25T06:28:40.092Z,10.80
2022-09-25T06:31:07.516Z,10.80
2022-09-25T06:33:34.410Z,10.80
2022-09-25T06:36:01.513Z,10.90
2022-09-25T06:38:28.776Z,11.00
2022-09-25T06:40:59.598Z,11.10
2022-09-25T06:43:27.927Z,11.20
2022-09-25T06:45:54.826Z,11.20
2022-09-25T06:48:22.334Z,11.40
2022-09-25T06:50:53.967Z,11.50
2022-09-25T06:53:22.613Z,11.50
2022-09-25T06:55:50.051Z,11.60
2022-09-25T06:58:20.515Z,11.60
2022-09-25T07:00:49.001Z,11.70
2022-09-25T07:03:34.615Z,11.90
2022-09-25T07:06:02.305Z,11.90
2022-09-25T07:08:29.450Z,12.00
2022-09-25T07:10:58.164Z,12.20
2022-09-25T07:13:27.732Z,12.30
2022-09-25T07:16:02.685Z,12.30
2022-09-25T07:18:30.370Z,12.30
2022-09-25T07:21:09.570Z,12.50
2022-09-25T07:23:37.937Z,12.50
2022-09-25T07:26:22.061Z,12.70
2022-09-25T07:29:00.345Z,12.80
2022-09-25T07:31:29.480Z,12.90
2022-09-25T07:33:57.608Z,13.10
2022-09-25T07:36:24.716Z,13.20
2022-09-25T07:38:52.907Z,13.40
2022-09-25T07:41:22.684Z,13.50
2022-09-25T07:46:44.794Z,13.70
2022-09-25T07:49:12.152Z,13.80
2022-09-25T07:51:39.264Z,14.00
2022-09-25T07:54:06.268Z,14.20
2022-09-25T07:56:34.699Z,14.30
2022-09-25T07:59:01.770Z,14.50
2022-09-25T08:01:28.849Z,14.50
2022-09-25T08:03:55.753Z,14.70
2022-09-25T08:06:22.646Z,14.70
2022-09-25T08:08:49.451Z,14.90
2022-09-25T08:11:17.791Z,15.00
2022-09-25T08:13:46.213Z,14.90
2022-09-25T08:16:15.903Z,14.90
2022-09-25T08:18:46.295Z,15.00
2022-09-25T08:21:15.400Z,15.10
2022-09-25T08:23:47.756Z,15.20
2022-09-25T08:26:15.942Z,15.40
2022-09-25T08:28:43.109Z,15.50
2022-09-25T08:31:10.250Z,15.50
2022-09-25T08:33:37.514Z,15.60
2022-09-25T08:36:05.983Z,15.60
2022-09-25T08:38:33.457Z,15.70
2022-09-25T08:41:04.844Z,16.00
2022-09-25T08:43:35.342Z,15.90
2022-09-25T08:46:29.148Z,16.00
2022-09-25T08:49:04.947Z,15.70
2022-09-25T08:51:38.513Z,15.80
2022-09-25T08:54:05.834Z,15.90
2022-09-25T08:56:35.219Z,16.20
2022-09-25T08:59:19.853Z,16.40
2022-09-25T09:01:53.436Z,16.30
2022-09-25T09:04:37.099Z,16.50
2022-09-25T09:07:26.825Z,16.50
2022-09-25T09:10:07.764Z,16.70
2022-09-25T09:12:49.271Z,16.90
2022-09-25T09:15:39.235Z,16.60
2022-09-25T09:18:21.466Z,16.80
2022-09-25T09:20:54.632Z,16.70
2022-09-25T09:23:24.392Z,16.60
2022-09-25T09:25:59.227Z,16.80
2022-09-25T09:28:37.849Z,17.00
2022-09-25T09:31:35.272Z,17.00
2022-09-25T09:34:02.011Z,16.90
2022-09-25T09:36:51.442Z,17.10
2022-09-25T09:39:32.187Z,17.20
2022-09-25T09:42:13.900Z,16.90
2022-09-25T09:45:13.133Z,17.30
2022-09-25T09:47:46.327Z,17.40
2022-09-25T09:50:26.994Z,17.70
2022-09-25T09:53:03.618Z,17.70
2022-09-25T09:55:36.299Z,17.70
2022-09-25T09:58:08.779Z,17.70
2022-09-25T10:04:27.324Z,17.60
2022-09-25T10:10:44.005Z,18.10
2022-09-25T10:13:20.389Z,18.30
2022-09-25T10:15:52.812Z,18.00
2022-09-25T10:18:22.939Z,17.80
2022-09-25T10:20:59.279Z,17.80
2022-09-25T10:23:47.111Z,17.90
2022-09-25T10:26:25.913Z,18.00
2022-09-25T10:28:53.536Z,18.30
2022-09-25T10:31:21.222Z,18.10
2022-09-25T10:34:14.152Z,17.80
2022-09-25T10:36:43.621Z,17.70
2022-09-25T10:39:46.335Z,17.40
2022-09-25T10:42:37.493Z,17.30
2022-09-25T10:45:22.410Z,17.30
2022-09-25T10:48:09.301Z,17.20
2022-09-25T10:50:39.540Z,17.40
2022-09-25T10:53:07.724Z,17.40
2022-09-25T10:55:37.460Z,17.40
2022-09-25T10:58:27.176Z,17.20
2022-09-25T11:00:58.991Z,17.20
2022-09-25T11:03:32.864Z,17.20
2022-09-25T11:06:05.693Z,17.20
2022-09-25T11:08:41.361Z,17.50
2022-09-25T11:11:09.806Z,17.40
2022-09-25T11:13:50.537Z,17.10
2022-09-25T11:16:17.536Z,17.30
2022-09-25T11:18:50.037Z,17.20
2022-09-25T11:21:19.957Z,17.20
2022-09-25T11:24:06.934Z,17.10
2022-09-25T11:26:43.325Z,17.10
2022-09-25T11:29:13.169Z,17.10
2022-09-25T11:32:02.176Z,17.10
2022-09-25T11:34:53.383Z,17.30
2022-09-25T11:37:27.451Z,17.30
2022-09-25T11:40:40.174Z,17.30
2022-09-25T11:43:11.145Z,17.40
2022-09-25T11:45:59.567Z,17.30
2022-09-25T11:48:51.000Z,17.30
2022-09-25T11:51:29.236Z,17.30
2022-09-25T11:54:36.535Z,17.30
2022-09-25T11:57:13.725Z,17.60
2022-09-25T11:59:58.007Z,17.70
2022-09-25T12:02:38.764Z,17.60
2022-09-25T12:05:08.383Z,17.80
2022-09-25T12:08:03.994Z,17.80
2022-09-25T12:10:48.961Z,17.80
2022-09-25T12:13:24.903Z,17.80
2022-09-25T12:16:13.239Z,18.00
2022-09-25T12:18:48.817Z,18.00
2022-09-25T12:21:41.890Z,18.20
2022-09-25T12:24:40.253Z,18.30
2022-09-25T12:27:21.179Z,18.20
2022-09-25T12:30:15.432Z,18.10
2022-09-25T12:33:15.117Z,18.20
2022-09-25T12:35:58.478Z,17.90
2022-09-25T12:38:38.301Z,17.90
2022-09-25T12:41:18.073Z,18.10
2022-09-25T12:43:52.139Z,18.10
2022-09-25T12:46:27.581Z,17.50
2022-09-25T12:49:14.689Z,17.20
2022-09-25T12:51:46.362Z,16.90
2022-09-25T12:54:23.290Z,16.90
2022-09-25T12:56:56.405Z,17.00
2022-09-25T12:59:26.291Z,17.10
2022-09-25T13:02:03.954Z,17.10
2022-09-25T13:05:02.466Z,17.20
2022-09-25T13:07:43.577Z,17.20
2022-09-25T13:10:39.399Z,17.20
2022-09-25T13:13:13.138Z,17.50
2022-09-25T13:15:42.918Z,17.40
2022-09-25T13:18:17.011Z,17.30
2022-09-25T13:20:49.054Z,17.20
2022-09-25T13:23:25.842Z,17.10
2022-09-25T13:26:08.605Z,17.00
2022-09-25T13:28:47.602Z,16.90
2022-09-25T13:31:23.768Z,16.80
2022-09-25T13:34:02.624Z,16.80
2022-09-25T13:36:45.439Z,16.40
2022-09-25T13:39:33.815Z,16.30
2022-09-25T13:42:13.484Z,16.20
2022-09-25T13:44:43.610Z,16.10
2022-09-25T13:47:25.311Z,16.00
2022-09-25T13:50:12.016Z,16.00
2022-09-25T13:52:38.795Z,15.90
2022-09-25T13:55:22.254Z,15.80
2022-09-25T13:57:55.988Z,15.70
2022-09-25T14:00:23.513Z,15.70
2022-09-25T14:02:50.785Z,15.60
2022-09-25T14:05:21.662Z,15.50
2022-09-25T14:07:52.739Z,15.50
2022-09-25T14:10:20.354Z,15.30
2022-09-25T14:12:49.801Z,15.20
2022-09-25T14:15:35.737Z,15.10
2022-09-25T14:18:08.412Z,15.10
2022-09-25T14:20:41.252Z,15.10
2022-09-25T14:23:24.719Z,15.20
2022-09-25T14:26:02.769Z,15.20
2022-09-25T14:28:33.065Z,15.00
2022-09-25T14:31:21.557Z,14.90
2022-09-25T14:34:16.303Z,14.80
2022-09-25T14:37:07.059Z,14.80
2022-09-25T14:40:25.269Z,14.80
2022-09-25T14:43:17.202Z,14.80
2022-09-25T14:45:53.219Z,14.90
2022-09-25T14:48:26.037Z,14.90
2022-09-25T14:50:57.580Z,14.80
2022-09-25T14:53:31.488Z,14.80
2022-09-25T14:56:01.822Z,14.90
2022-09-25T14:58:32.630Z,14.90
2022-09-25T15:01:13.931Z,15.00
2022-09-25T15:03:47.085Z,15.00
2022-09-25T15:06:24.887Z,15.00
2022-09-25T15:08:52.810Z,14.90
2022-09-25T15:11:21.741Z,14.90
2022-09-25T15:13:48.655Z,14.80
2022-09-25T15:16:43.529Z,14.80
2022-09-25T15:19:17.989Z,14.90
2022-09-25T15:21:45.031Z,15.20
2022-09-25T15:24:19.895Z,15.50
2022-09-25T15:26:56.309Z,15.70
2022-09-25T15:29:24.363Z,15.90
2022-09-25T15:31:52.011Z,16.10
2022-09-25T15:34:25.544Z,16.20
2022-09-25T15:36:53.237Z,16.20
2022-09-25T15:39:26.111Z,16.10
2022-09-25T15:41:53.092Z,16.10
2022-09-25T15:44:26.625Z,15.90
2022-09-25T15:46:59.164Z,15.60
2022-09-25T15:49:43.493Z,15.40
2022-09-25T15:52:29.404Z,15.10
2022-09-25T15:55:06.544Z,14.80
2022-09-25T15:57:33.957Z,14.50
2022-09-25T16:00:26.075Z,14.10
2022-09-25T16:03:39.667Z,13.80
2022-09-25T16:06:07.230Z,13.60
2022-09-25T16:08:36.820Z,13.40
2022-09-25T16:11:17.832Z,13.20
2022-09-25T16:13:48.881Z,13.00
2022-09-25T16:16:36.204Z,12.90
2022-09-25T16:19:32.734Z,12.70
2022-09-25T16:22:13.223Z,12.50
2022-09-25T16:24:40.514Z,12.40
2022-09-25T16:27:07.629Z,12.20
2022-09-25T16:29:39.303Z,12.10
2022-09-25T16:32:13.761Z,11.90
2022-09-25T16:34:40.767Z,11.80
2022-09-25T16:37:20.807Z,11.60
2022-09-25T16:40:19.555Z,11.50
2022-09-25T16:42:47.434Z,11.30
2022-09-25T16:45:22.874Z,11.20
2022-09-25T16:47:50.759Z,11.20
2022-09-25T16:50:19.235Z,11.10
2022-09-25T16:52:47.054Z,11.00
2022-09-25T16:55:26.316Z,10.80
2022-09-25T16:57:54.295Z,10.70
2022-09-25T17:00:28.337Z,10.70
2022-09-25T17:02:56.001Z,10.70
2022-09-25T17:05:29.071Z,10.70
2022-09-25T17:07:58.091Z,10.50
2022-09-25T17:10:28.730Z,10.40
2022-09-25T17:12:59.143Z,10.20
2022-09-25T17:15:36.470Z,10.20
2022-09-25T17:18:07.185Z,10.10
2022-09-25T17:20:35.644Z,10.00
2022-09-25T17:23:02.476Z,9.90
2022-09-25T17:25:41.565Z,9.80
2022-09-25T17:28:10.542Z,9.70
2022-09-25T17:30:38.967Z,9.60
2022-09-25T17:33:09.348Z,9.60
2022-09-25T17:35:45.223Z,9.60
2022-09-25T17:38:14.842Z,9.60
2022-09-25T17:40:44.582Z,9.60
2022-09-25T17:43:13.999Z,9.70
2022-09-25T17:46:04.090Z,9.80
2022-09-25T17:48:31.989Z,9.60
2022-09-25T17:51:16.414Z,9.60
2022-09-25T17:53:44.071Z,9.50
2022-09-25T17:56:12.174Z,9.40
2022-09-25T17:58:39.257Z,9.30
2022-09-25T18:01:21.890Z,9.30
2022-09-25T18:03:54.672Z,9.30
2022-09-25T18:06:22.509Z,9.20
2022-09-25T18:08:51.010Z,9.10
2022-09-25T18:11:18.199Z,9.00
2022-09-25T18:13:45.262Z,8.90
2022-09-25T18:16:21.102Z,9.00
2022-09-25T18:19:06.948Z,8.90
2022-09-25T18:21:52.624Z,8.90
2022-09-25T18:24:19.529Z,8.70
2022-09-25T18:26:46.781Z,8.70
2022-09-25T18:29:18.236Z,8.70
2022-09-25T18:31:46.627Z,8.80
2022-09-25T18:34:14.717Z,8.80
2022-09-25T18:36:41.848Z,8.70
2022-09-25T18:39:08.987Z,8.70
2022-09-25T18:41:39.691Z,8.60
2022-09-25T18:44:07.423Z,8.60
2022-09-25T18:46:38.304Z,8.60
2022-09-25T18:49:06.191Z,8.50
2022-09-25T18:51:34.420Z,8.50
2022-09-25T18:54:01.801Z,8.40
2022-09-25T18:56:28.687Z,8.50
2022-09-25T18:58:55.558Z,8.30
2022-09-25T19:05:10.592Z,8.40
2022-09-25T19:07:38.781Z,8.20
2022-09-25T19:10:09.543Z,8.20
2022-09-25T19:12:36.581Z,8.30
2022-09-25T19:15:04.859Z,8.30
2022-09-25T19:17:32.274Z,8.20
2022-09-25T19:19:59.170Z,8.20
2022-09-25T19:22:26.375Z,8.10
2022-09-25T19:24:54.508Z,8.10
2022-09-25T19:27:21.468Z,8.10
2022-09-25T19:33:30.955Z,8.10
2022-09-25T19:35:59.690Z,8.00
2022-09-25T19:38:27.401Z,8.00
2022-09-25T19:40:54.373Z,8.00
2022-09-25T19:43:21.451Z,8.00
2022-09-25T19:45:52.311Z,7.90
2022-09-25T19:48:19.856Z,8.00
2022-09-25T19:50:46.929Z,7.90
2022-09-25T19:53:14.325Z,7.90
2022-09-25T19:55:43.135Z,7.90
2022-09-25T19:58:11.092Z,7.80
2022-09-25T20:00:42.214Z,7.80
2022-09-25T20:03:10.056Z,7.80
2022-09-25T20:05:39.336Z,7.80
2022-09-25T20:08:07.696Z,7.80
2022-09-25T20:10:35.591Z,7.80
2022-09-25T20:13:02.895Z,7.80
2022-09-25T20:15:30.108Z,7.80
2022-09-25T20:17:57.283Z,7.90
2022-09-25T20:20:28.572Z,7.80
2022-09-25T20:22:56.472Z,7.70
2022-09-25T20:25:24.084Z,7.70
2022-09-25T20:27:52.434Z,7.70
2022-09-25T20:30:19.582Z,7.70
2022-09-25T20:32:46.910Z,7.70
2022-09-25T20:35:14.016Z,7.60
2022-09-25T20:37:40.892Z,7.60
2022-09-25T20:40:08.525Z,7.70
2022-09-25T20:42:35.330Z,7.60
2022-09-25T20:45:02.182Z,7.60
2022-09-25T20:47:33.590Z,7.50
2022-09-25T20:50:00.932Z,7.60
2022-09-25T20:52:28.585Z,7.50
2022-09-25T20:54:56.562Z,7.50
2022-09-25T20:57:23.388Z,7.50
2022-09-25T20:59:50.342Z,7.60
2022-09-25T21:02:17.354Z,7.50
2022-09-25T21:04:45.103Z,7.50
2022-09-25T21:07:16.615Z,7.40
2022-09-25T21:09:43.960Z,7.50
2022-09-25T21:12:10.798Z,7.50
2022-09-25T21:14:38.066Z,7.50
2022-09-25T21:17:05.016Z,7.50
2022-09-25T21:19:32.030Z,7.50
2022-09-25T21:21:59.076Z,7.40
2022-09-25T21:24:25.946Z,7.50
2022-09-25T21:26:52.788Z,7.50
2022-09-25T21:29:20.099Z,7.60
2022-09-25T21:31:50.342Z,7.50
2022-09-25T21:34:18.189Z,7.40
2022-09-25T21:36:45.790Z,7.40
2022-09-25T21:39:13.380Z,7.40
2022-09-25T21:41:40.841Z,7.40
2022-09-25T21:44:13.244Z,7.50
2022-09-25T21:46:40.903Z,7.50
2022-09-25T21:49:08.833Z,7.60
2022-09-25T21:51:45.738Z,7.50
2022-09-25T21:54:14.281Z,7.70
2022-09-25T21:56:41.530Z,7.80
2022-09-25T21:59:09.472Z,7.80
2022-09-25T22:01:38.708Z,7.80
2022-09-25T22:04:06.974Z,7.80
2022-09-25T22:06:37.166Z,7.80
2022-09-25T22:09:07.026Z,7.90
2022-09-25T22:11:34.353Z,7.90
2022-09-25T22:14:01.994Z,7.90
2022-09-25T22:16:34.995Z,7.90
2022-09-25T22:19:11.847Z,8.10
2022-09-25T22:21:39.495Z,8.00
2022-09-25T22:24:07.190Z,8.00
2022-09-25T22:26:36.807Z,8.00
2022-09-25T22:29:04.251Z,8.00
2022-09-25T22:31:32.951Z,7.90
2022-09-25T22:34:06.302Z,7.90
2022-09-25T22:36:36.414Z,7.80
2022-09-25T22:39:04.733Z,7.70
2022-09-25T22:41:32.302Z,7.70
2022-09-25T22:44:00.966Z,7.70
2022-09-25T22:46:28.313Z,7.60
2022-09-25T22:48:55.170Z,7.50
2022-09-25T22:51:24.852Z,7.50
2022-09-25T22:53:52.548Z,7.40
2022-09-25T22:56:30.471Z,7.40
2022-09-25T22:59:06.231Z,7.30
2022-09-25T23:01:46.681Z,7.30
2022-09-25T23:04:16.589Z,7.30
2022-09-25T23:06:43.888Z,7.30
2022-09-25T23:09:17.008Z,7.20
2022-09-25T23:11:44.809Z,7.30
2022-09-25T23:14:17.027Z,7.20
2022-09-25T23:16:45.284Z,7.30
2022-09-25T23:19:13.094Z,7.30
2022-09-25T23:21:40.450Z,7.30
2022-09-25T23:24:11.489Z,7.70
2022-09-25T23:26:38.508Z,7.60
2022-09-25T23:29:05.388Z,7.70
2022-09-25T23:31:33.809Z,7.80
2022-09-25T23:34:01.846Z,7.80
2022-09-25T23:36:29.637Z,7.90
2022-09-25T23:38:59.545Z,8.00
2022-09-25T23:41:35.998Z,8.00
2022-09-25T23:44:06.434Z,8.10
2022-09-25T23:46:36.557Z,8.10
2022-09-25T23:49:04.252Z,8.20
2022-09-25T23:51:31.074Z,8.20
2022-09-25T23:54:00.045Z,8.20
2022-09-25T23:56:29.198Z,8.20
2022-09-25T23:58:57.716Z,8.20
